Time;durP1;ratioP1;P1;durP2;ratioP2;P2;SDS_P1;SDS_P2;PMS_P1;PMS_P2;Temp;Humidity;BMP_temperature;BMP_pressure;BME280_temperature;BME280_humidity;BME280_pressure;Samples;Min_cycle;Max_cycle;Signal;HPM_P1;HPM_P2
2023/04/14 00:00:09;;;;;;;2.85;1.67;;;;;;;;;;5055651;28;20065;-68
2023/04/14 00:02:34;;;;;;;5.10;1.92;;;;;;;;;;5069782;28;20111;-65
2023/04/14 00:05:00;;;;;;;4.78;1.88;;;;;;;;;;5052824;28;20068;-68
2023/04/14 00:07:25;;;;;;;8.48;2.13;;;;;;;;;;5051149;28;20020;-71
2023/04/14 00:09:50;;;;;;;5.20;2.28;;;;;;;;;;5066045;28;20021;-71
2023/04/14 00:12:15;;;;;;;5.03;1.90;;;;;;;;;;5052954;28;20028;-71
2023/04/14 00:14:42;;;;;;;6.88;1.92;;;;;;;;;;5050271;28;20024;-69
2023/04/14 00:17:07;;;;;;;3.85;1.58;;;;;;;;;;5050956;28;20443;-71
2023/04/14 00:19:32;;;;;;;5.00;2.17;;;;;;;;;;5055465;28;20512;-71
2023/04/14 00:21:57;;;;;;;6.18;2.17;;;;;;;;;;5061281;28;20524;-71
2023/04/14 00:24:23;;;;;;;3.60;1.80;;;;;;;;;;5069489;28;20104;-68
2023/04/14 00:26:48;;;;;;;4.13;2.00;;;;;;;;;;5033381;28;20072;-70
2023/04/14 00:29:14;;;;;;;7.32;2.05;;;;;;;;;;5062362;28;20100;-67
2023/04/14 00:31:39;;;;;;;6.03;2.22;;;;;;;;;;5064602;28;20083;-68
2023/04/14 00:34:04;;;;;;;4.28;2.00;;;;;;;;;;5040135;28;20470;-70
2023/04/14 00:36:31;;;;;;;5.07;1.98;;;;;;;;;;5051207;28;20052;-71
2023/04/14 00:38:56;;;;;;;7.25;2.00;;;;;;;;;;5060865;28;20020;-71
2023/04/14 00:41:23;;;;;;;4.72;1.98;;;;;;;;;;5059199;28;20020;-71
2023/04/14 00:43:51;;;;;;;5.82;2.10;;;;;;;;;;5049812;28;20029;-69
2023/04/14 00:46:17;;;;;;;5.88;2.60;;;;;;;;;;5052725;28;20040;-71
2023/04/14 00:48:43;;;;;;;4.13;2.13;;;;;;;;;;5065042;28;20474;-71
2023/04/14 00:51:08;;;;;;;6.22;2.22;;;;;;;;;;5032380;28;20444;-69
2023/04/14 00:53:33;;;;;;;6.07;2.33;;;;;;;;;;5050094;28;20343;-68
2023/04/14 00:55:59;;;;;;;3.95;2.22;;;;;;;;;;5050331;28;20124;-67
2023/04/14 00:58:25;;;;;;;4.32;2.08;;;;;;;;;;5050810;28;20052;-70
2023/04/14 01:00:54;;;;;;;4.55;2.17;;;;;;;;;;5050090;28;20017;-70
2023/04/14 01:03:19;;;;;;;4.45;2.08;;;;;;;;;;5055664;28;20024;-69
2023/04/14 01:05:45;;;;;;;5.55;2.20;;;;;;;;;;5052978;28;20043;-70
2023/04/14 01:08:11;;;;;;;5.50;2.40;;;;;;;;;;5064034;28;20020;-69
2023/04/14 01:10:39;;;;;;;4.18;1.88;;;;;;;;;;5064563;28;20040;-70
2023/04/14 01:13:11;;;;;;;4.47;2.15;;;;;;;;;;5050128;28;20032;-70
2023/04/14 01:15:36;;;;;;;5.53;2.00;;;;;;;;;;5050025;28;20103;-71
2023/04/14 01:18:07;;;;;;;6.68;2.92;;;;;;;;;;5050599;28;20103;-70
2023/04/14 01:20:32;;;;;;;5.68;2.28;;;;;;;;;;5052124;28;20017;-71
2023/04/14 01:23:00;;;;;;;4.90;1.98;;;;;;;;;;5068114;28;20493;-70
2023/04/14 01:25:44;;;;;;;4.82;2.22;;;;;;;;;;5049212;28;20032;-71
2023/04/14 01:28:28;;;;;;;4.35;2.20;;;;;;;;;;5049930;28;20025;-70
2023/04/14 01:31:11;;;;;;;4.40;2.55;;;;;;;;;;5050181;28;20024;-70
2023/04/14 01:33:37;;;;;;;5.82;2.55;;;;;;;;;;5049743;28;20028;-70
2023/04/14 01:36:06;;;;;;;6.63;2.80;;;;;;;;;;5031359;28;20021;-70
2023/04/14 01:38:32;;;;;;;5.60;2.67;;;;;;;;;;5058829;28;20098;-70
2023/04/14 01:41:01;;;;;;;4.85;2.50;;;;;;;;;;5067925;28;20027;-71
2023/04/14 01:43:27;;;;;;;4.95;2.53;;;;;;;;;;5049581;28;20021;-72
2023/04/14 01:45:55;;;;;;;6.13;2.33;;;;;;;;;;5049344;28;20020;-69
2023/04/14 01:48:21;;;;;;;6.22;2.80;;;;;;;;;;5049870;28;20049;-72
2023/04/14 01:50:47;;;;;;;9.30;2.42;;;;;;;;;;5031212;28;20036;-71
2023/04/14 01:53:15;;;;;;;4.38;2.17;;;;;;;;;;5049197;28;20033;-70
2023/04/14 01:55:40;;;;;;;4.65;2.60;;;;;;;;;;5049315;28;20021;-71
2023/04/14 01:58:07;;;;;;;7.93;2.25;;;;;;;;;;5049640;28;20079;-70
2023/04/14 02:00:34;;;;;;;6.10;3.00;;;;;;;;;;5049561;28;20084;-69
2023/04/14 02:03:01;;;;;;;8.98;3.10;;;;;;;;;;5049372;28;20071;-70
2023/04/14 02:05:28;;;;;;;5.68;2.85;;;;;;;;;;5055913;28;20052;-68
2023/04/14 02:07:53;;;;;;;6.55;2.92;;;;;;;;;;5060972;28;20020;-68
2023/04/14 02:10:20;;;;;;;7.32;2.78;;;;;;;;;;5068977;28;20036;-70
2023/04/14 02:12:46;;;;;;;5.10;2.42;;;;;;;;;;5069122;28;20070;-70
2023/04/14 02:15:12;;;;;;;5.30;2.78;;;;;;;;;;5057458;28;20021;-70
2023/04/14 02:17:39;;;;;;;7.43;3.00;;;;;;;;;;5049826;28;20021;-70
2023/04/14 02:20:06;;;;;;;7.32;3.40;;;;;;;;;;5053984;28;20017;-70
2023/04/14 02:22:31;;;;;;;5.80;2.80;;;;;;;;;;5068078;28;20107;-70
2023/04/14 02:24:57;;;;;;;5.80;2.58;;;;;;;;;;5069078;28;20104;-69
2023/04/14 02:27:29;;;;;;;12.35;2.92;;;;;;;;;;5051178;28;20466;-71
2023/04/14 02:29:55;;;;;;;6.45;3.05;;;;;;;;;;5049529;28;20028;-69
2023/04/14 02:32:22;;;;;;;5.22;2.67;;;;;;;;;;5048905;28;20405;-69
2023/04/14 02:34:51;;;;;;;6.53;3.05;;;;;;;;;;5032260;28;20096;-70
2023/04/14 02:37:20;;;;;;;7.07;2.92;;;;;;;;;;5049976;28;20252;-70
2023/04/14 02:39:49;;;;;;;6.38;3.17;;;;;;;;;;5053150;28;20017;-69
2023/04/14 02:42:15;;;;;;;10.30;3.25;;;;;;;;;;5060930;28;20028;-68
2023/04/14 02:44:47;;;;;;;6.25;2.55;;;;;;;;;;5052946;28;20021;-70
2023/04/14 02:47:18;;;;;;;5.40;2.63;;;;;;;;;;5053092;28;20021;-69
2023/04/14 02:49:45;;;;;;;6.95;3.20;;;;;;;;;;5052735;28;20106;-72
2023/04/14 02:52:12;;;;;;;8.68;3.03;;;;;;;;;;5064344;28;20029;-70
2023/04/14 02:54:40;;;;;;;5.93;3.03;;;;;;;;;;5077095;23;20048;-67
2023/04/14 02:57:05;;;;;;;6.28;3.08;;;;;;;;;;5071380;28;20044;-65
2023/04/14 02:59:31;;;;;;;7.57;3.42;;;;;;;;;;5071532;28;20097;-68
2023/04/14 03:02:00;;;;;;;7.95;3.47;;;;;;;;;;5071579;28;20017;-69
2023/04/14 03:04:28;;;;;;;8.48;3.25;;;;;;;;;;5070766;28;20405;-66
2023/04/14 03:06:53;;;;;;;5.40;2.90;;;;;;;;;;5046851;28;20095;-67
2023/04/14 03:09:19;;;;;;;8.15;3.40;;;;;;;;;;5054335;28;20112;-70
2023/04/14 03:11:45;;;;;;;6.05;3.25;;;;;;;;;;5061633;28;20120;-69
2023/04/14 03:14:11;;;;;;;7.32;3.25;;;;;;;;;;5067322;28;20021;-70
2023/04/14 03:16:38;;;;;;;8.48;3.30;;;;;;;;;;5070924;28;20070;-69
2023/04/14 03:19:04;;;;;;;6.97;3.30;;;;;;;;;;5036847;28;20025;-66
2023/04/14 03:21:30;;;;;;;8.57;3.03;;;;;;;;;;5050870;28;20421;-68
2023/04/14 03:23:56;;;;;;;6.05;2.83;;;;;;;;;;5052551;28;20094;-67
2023/04/14 03:26:23;;;;;;;5.88;3.35;;;;;;;;;;5070712;28;20024;-67
2023/04/14 03:28:49;;;;;;;5.30;3.08;;;;;;;;;;5057342;28;20013;-67
2023/04/14 03:31:17;;;;;;;6.10;2.78;;;;;;;;;;5061222;28;20090;-68
2023/04/14 03:33:44;;;;;;;6.15;2.90;;;;;;;;;;5066881;28;20113;-66
2023/04/14 03:36:10;;;;;;;7.45;3.40;;;;;;;;;;5072582;28;20557;-68
2023/04/14 03:38:35;;;;;;;8.40;2.90;;;;;;;;;;5069898;28;20091;-67
2023/04/14 03:41:04;;;;;;;7.97;3.60;;;;;;;;;;5065974;28;20096;-69
2023/04/14 03:43:30;;;;;;;6.28;3.42;;;;;;;;;;5064237;28;20037;-68
2023/04/14 03:45:56;;;;;;;8.27;3.75;;;;;;;;;;5061132;28;20024;-68
2023/04/14 03:48:25;;;;;;;8.38;3.47;;;;;;;;;;5066839;28;20024;-68
2023/04/14 03:50:51;;;;;;;11.13;3.78;;;;;;;;;;5060956;28;20024;-68
2023/04/14 03:53:17;;;;;;;6.25;3.33;;;;;;;;;;5056462;28;20033;-66
2023/04/14 03:55:44;;;;;;;6.53;3.40;;;;;;;;;;5050045;28;20445;-68
2023/04/14 03:58:13;;;;;;;13.40;3.80;;;;;;;;;;5068041;28;20028;-68
2023/04/14 04:00:38;;;;;;;7.65;3.28;;;;;;;;;;5070510;28;20114;-67
2023/04/14 04:03:04;;;;;;;7.38;3.35;;;;;;;;;;5056864;28;20511;-64
2023/04/14 04:05:30;;;;;;;10.10;3.65;;;;;;;;;;5070290;28;20054;-68
2023/04/14 04:08:00;;;;;;;17.90;4.28;;;;;;;;;;5047073;28;20104;-69
2023/04/14 04:10:26;;;;;;;8.35;3.47;;;;;;;;;;5049531;28;20405;-69
2023/04/14 04:12:52;;;;;;;10.45;3.70;;;;;;;;;;5049811;28;20017;-67
2023/04/14 04:15:17;;;;;;;13.35;4.05;;;;;;;;;;5049981;28;20055;-65
2023/04/14 04:17:44;;;;;;;7.93;3.10;;;;;;;;;;5050458;28;20419;-69
2023/04/14 04:20:13;;;;;;;7.82;3.97;;;;;;;;;;5049624;28;20682;-68
2023/04/14 04:22:40;;;;;;;8.27;3.72;;;;;;;;;;5053135;28;20493;-67
2023/04/14 04:25:06;;;;;;;8.50;4.00;;;;;;;;;;5061180;28;20039;-66
2023/04/14 04:27:32;;;;;;;9.50;4.28;;;;;;;;;;5056228;28;20021;-68
2023/04/14 04:29:58;;;;;;;10.20;3.85;;;;;;;;;;5069912;28;20017;-66
2023/04/14 04:32:23;;;;;;;7.55;3.92;;;;;;;;;;5064559;28;20113;-69
2023/04/14 04:34:49;;;;;;;9.32;4.10;;;;;;;;;;5049008;28;20049;-69
2023/04/14 04:37:15;;;;;;;9.38;4.38;;;;;;;;;;5067417;28;20025;-66
2023/04/14 04:39:40;;;;;;;10.90;4.00;;;;;;;;;;5065110;28;20032;-70
2023/04/14 04:42:06;;;;;;;14.35;4.45;;;;;;;;;;5054134;28;20485;-67
2023/04/14 04:44:32;;;;;;;10.45;4.70;;;;;;;;;;5069454;28;20123;-68
2023/04/14 04:46:57;;;;;;;16.50;4.97;;;;;;;;;;5051652;28;20459;-66
2023/04/14 04:49:23;;;;;;;9.43;4.78;;;;;;;;;;5049310;28;20021;-69
2023/04/14 04:51:48;;;;;;;18.42;4.57;;;;;;;;;;5048976;28;20402;-67
2023/04/14 04:54:13;;;;;;;14.00;5.00;;;;;;;;;;5048601;28;20029;-68
2023/04/14 04:56:38;;;;;;;14.52;5.03;;;;;;;;;;5065604;28;20039;-68
2023/04/14 04:59:04;;;;;;;14.32;5.03;;;;;;;;;;5058609;28;20017;-66
2023/04/14 05:01:29;;;;;;;25.65;5.65;;;;;;;;;;5064959;28;20012;-67
2023/04/14 05:03:54;;;;;;;13.93;5.30;;;;;;;;;;5068416;28;20031;-68
2023/04/14 05:06:20;;;;;;;18.40;5.57;;;;;;;;;;5058412;28;20036;-68
2023/04/14 05:08:45;;;;;;;19.80;5.00;;;;;;;;;;5048717;28;20117;-67
2023/04/14 05:11:10;;;;;;;14.80;6.07;;;;;;;;;;5034064;28;20044;-68
2023/04/14 05:13:36;;;;;;;10.60;5.32;;;;;;;;;;5048227;28;20100;-67
2023/04/14 05:16:05;;;;;;;12.50;6.00;;;;;;;;;;5048003;28;20067;-67
2023/04/14 05:18:31;;;;;;;17.27;5.30;;;;;;;;;;5039348;28;20021;-69
2023/04/14 05:21:03;;;;;;;17.85;6.88;;;;;;;;;;5046014;28;20094;-66
2023/04/14 05:23:29;;;;;;;21.10;8.00;;;;;;;;;;5049698;28;20046;-68
2023/04/14 05:25:55;;;;;;;19.02;7.50;;;;;;;;;;5055576;28;20417;-67
2023/04/14 05:28:21;;;;;;;16.13;7.78;;;;;;;;;;5048950;28;20021;-68
2023/04/14 05:30:46;;;;;;;19.95;6.55;;;;;;;;;;5053694;28;20134;-67
2023/04/14 05:33:11;;;;;;;17.27;7.55;;;;;;;;;;5068298;28;20170;-67
2023/04/14 05:35:36;;;;;;;13.27;6.18;;;;;;;;;;5054596;28;20013;-70
2023/04/14 05:38:02;;;;;;;14.88;7.13;;;;;;;;;;5068315;28;20012;-69
2023/04/14 05:40:27;;;;;;;17.33;7.50;;;;;;;;;;5065985;28;20334;-68
2023/04/14 05:42:53;;;;;;;8.82;4.95;;;;;;;;;;5050322;28;20043;-67
2023/04/14 05:45:18;;;;;;;18.55;5.47;;;;;;;;;;5063508;28;20029;-68
2023/04/14 05:47:43;;;;;;;12.55;5.57;;;;;;;;;;5059222;28;20020;-66
2023/04/14 05:50:08;;;;;;;18.33;6.00;;;;;;;;;;5065241;28;20040;-68
2023/04/14 05:52:34;;;;;;;9.55;5.10;;;;;;;;;;5059068;28;20032;-66
2023/04/14 05:54:59;;;;;;;11.57;5.47;;;;;;;;;;5063637;28;20037;-68
2023/04/14 05:57:25;;;;;;;17.15;5.25;;;;;;;;;;5048025;28;20028;-67
2023/04/14 05:59:50;;;;;;;13.93;6.25;;;;;;;;;;5061629;28;20474;-68
2023/04/14 06:02:15;;;;;;;13.07;5.72;;;;;;;;;;5057884;28;20060;-67
2023/04/14 06:04:40;;;;;;;9.48;4.95;;;;;;;;;;5067145;28;20039;-69
2023/04/14 06:07:06;;;;;;;18.98;5.55;;;;;;;;;;5050638;28;20021;-68
2023/04/14 06:09:31;;;;;;;9.32;5.07;;;;;;;;;;5034945;28;20539;-66
2023/04/14 06:11:56;;;;;;;12.40;5.75;;;;;;;;;;5057982;28;20053;-70
2023/04/14 06:14:22;;;;;;;25.13;6.15;;;;;;;;;;5031513;28;20021;-66
2023/04/14 06:16:47;;;;;;;23.50;6.68;;;;;;;;;;5047713;28;20032;-66
2023/04/14 06:19:12;;;;;;;13.10;5.82;;;;;;;;;;5063211;28;20020;-68
2023/04/14 06:21:37;;;;;;;13.63;6.35;;;;;;;;;;5047222;28;20021;-67
2023/04/14 06:24:03;;;;;;;11.10;5.75;;;;;;;;;;5048552;28;20021;-66
2023/04/14 06:26:28;;;;;;;12.43;5.63;;;;;;;;;;5048743;28;20025;-66
2023/04/14 06:28:53;;;;;;;13.90;6.22;;;;;;;;;;5045399;28;20032;-67
2023/04/14 06:31:19;;;;;;;20.00;6.15;;;;;;;;;;5047822;28;20021;-67
2023/04/14 06:33:44;;;;;;;8.90;4.93;;;;;;;;;;5048924;28;20089;-67
2023/04/14 06:36:10;;;;;;;13.13;5.07;;;;;;;;;;5047276;28;20028;-66
2023/04/14 06:38:35;;;;;;;13.88;5.05;;;;;;;;;;5048104;28;20465;-67
2023/04/14 06:41:00;;;;;;;9.57;4.88;;;;;;;;;;5047576;28;20406;-68
2023/04/14 06:43:27;;;;;;;7.75;4.18;;;;;;;;;;5043221;28;20402;-67
2023/04/14 06:45:52;;;;;;;17.15;5.47;;;;;;;;;;5052173;28;20486;-68
2023/04/14 06:48:18;;;;;;;10.32;4.55;;;;;;;;;;5046938;28;20033;-67
2023/04/14 06:50:50;;;;;;;10.88;4.70;;;;;;;;;;5055911;28;20021;-67
2023/04/14 06:53:16;;;;;;;12.20;4.90;;;;;;;;;;5048091;28;20036;-66
2023/04/14 06:55:41;;;;;;;11.90;5.18;;;;;;;;;;5045875;28;20021;-66
2023/04/14 06:58:06;;;;;;;20.73;5.22;;;;;;;;;;5046524;28;20075;-68
2023/04/14 07:00:31;;;;;;;11.55;5.30;;;;;;;;;;5048726;28;20622;-67
2023/04/14 07:02:57;;;;;;;12.43;5.07;;;;;;;;;;5046685;28;20478;-68
2023/04/14 07:05:22;;;;;;;9.35;4.68;;;;;;;;;;5059762;28;20032;-66
2023/04/14 07:07:47;;;;;;;9.50;4.82;;;;;;;;;;5050007;28;20367;-69
2023/04/14 07:10:12;;;;;;;8.93;3.92;;;;;;;;;;5052880;28;20052;-69
2023/04/14 07:12:38;;;;;;;18.55;4.80;;;;;;;;;;5060429;28;20021;-68
2023/04/14 07:15:03;;;;;;;20.00;4.60;;;;;;;;;;5053615;28;20025;-64
2023/04/14 07:17:29;;;;;;;11.38;4.78;;;;;;;;;;5047801;28;20583;-69
2023/04/14 07:19:54;;;;;;;10.60;4.53;;;;;;;;;;5048760;28;20021;-67
2023/04/14 07:22:19;;;;;;;8.52;4.03;;;;;;;;;;5047211;28;20028;-68
2023/04/14 07:24:44;;;;;;;14.55;5.38;;;;;;;;;;5036047;28;20032;-69
2023/04/14 07:27:13;;;;;;;11.95;4.28;;;;;;;;;;5057722;28;20439;-67
2023/04/14 07:29:39;;;;;;;10.48;4.47;;;;;;;;;;5050566;28;20033;-69
2023/04/14 07:32:04;;;;;;;9.98;4.65;;;;;;;;;;5032565;28;20040;-70
2023/04/14 07:34:31;;;;;;;9.82;4.47;;;;;;;;;;5052567;28;20533;-63
2023/04/14 07:36:57;;;;;;;10.18;4.18;;;;;;;;;;5063403;28;20013;-68
2023/04/14 07:39:22;;;;;;;7.45;4.13;;;;;;;;;;5059884;28;20401;-68
2023/04/14 07:41:47;;;;;;;13.95;6.22;;;;;;;;;;5059454;28;20096;-67
2023/04/14 07:44:12;;;;;;;12.55;5.05;;;;;;;;;;5057758;28;20100;-66
2023/04/14 07:46:38;;;;;;;13.50;4.57;;;;;;;;;;5070530;28;20417;-66
2023/04/14 07:49:03;;;;;;;9.25;4.50;;;;;;;;;;5065318;28;20032;-67
2023/04/14 07:51:28;;;;;;;15.07;5.38;;;;;;;;;;5061446;28;20028;-68
2023/04/14 07:53:54;;;;;;;14.40;4.65;;;;;;;;;;5048828;28;20025;-68
2023/04/14 07:56:21;;;;;;;16.83;4.78;;;;;;;;;;5045838;28;20021;-65
2023/04/14 07:58:46;;;;;;;7.32;4.07;;;;;;;;;;5069765;28;20444;-68
2023/04/14 08:01:11;;;;;;;10.82;4.20;;;;;;;;;;5051479;28;20501;-68
2023/04/14 08:03:37;;;;;;;6.78;3.83;;;;;;;;;;5037909;28;20020;-69
2023/04/14 08:06:06;;;;;;;6.38;3.65;;;;;;;;;;5070485;28;20044;-65
2023/04/14 08:08:31;;;;;;;9.27;3.47;;;;;;;;;;5051537;28;20032;-68
2023/04/14 08:10:57;;;;;;;5.93;3.38;;;;;;;;;;5050221;28;20082;-67
2023/04/14 08:13:22;;;;;;;14.30;3.33;;;;;;;;;;5053648;28;20029;-64
2023/04/14 08:15:47;;;;;;;8.15;3.97;;;;;;;;;;5057321;28;20021;-65
2023/04/14 08:18:12;;;;;;;6.10;3.10;;;;;;;;;;5049249;28;20724;-66
2023/04/14 08:20:38;;;;;;;11.02;3.83;;;;;;;;;;5051983;28;20254;-68
2023/04/14 08:23:03;;;;;;;9.50;3.08;;;;;;;;;;5055579;28;20516;-69
2023/04/14 08:25:28;;;;;;;12.05;3.30;;;;;;;;;;5049943;28;20135;-66
2023/04/14 08:27:53;;;;;;;9.10;3.83;;;;;;;;;;5055929;28;20393;-68
2023/04/14 08:30:19;;;;;;;14.13;3.55;;;;;;;;;;5057154;28;20419;-67
2023/04/14 08:32:44;;;;;;;7.47;3.30;;;;;;;;;;5068521;28;20139;-69
2023/04/14 08:35:09;;;;;;;7.60;3.17;;;;;;;;;;5046845;28;20115;-67
2023/04/14 08:37:34;;;;;;;8.32;3.25;;;;;;;;;;5046047;28;20025;-69
2023/04/14 08:40:00;;;;;;;9.43;3.60;;;;;;;;;;5052400;28;20044;-69
2023/04/14 08:42:25;;;;;;;8.95;3.30;;;;;;;;;;5049127;28;20032;-69
2023/04/14 08:44:51;;;;;;;17.73;5.65;;;;;;;;;;5051830;28;20028;-66
2023/04/14 08:47:18;;;;;;;12.38;3.25;;;;;;;;;;5069107;28;20051;-67
2023/04/14 08:50:03;;;;;;;6.32;3.00;;;;;;;;;;5056519;28;20573;-67
2023/04/14 08:52:29;;;;;;;9.80;3.10;;;;;;;;;;5029486;28;20119;-68
2023/04/14 08:54:55;;;;;;;10.13;2.50;;;;;;;;;;5051433;23;20495;-64
2023/04/14 08:57:22;;;;;;;6.63;2.85;;;;;;;;;;5030996;28;20031;-64
2023/04/14 08:59:47;;;;;;;8.82;3.08;;;;;;;;;;5043856;28;20025;-64
2023/04/14 09:02:12;;;;;;;8.85;3.33;;;;;;;;;;5033572;28;20027;-65
2023/04/14 09:04:38;;;;;;;7.30;2.67;;;;;;;;;;5036356;28;20030;-63
2023/04/14 09:07:04;;;;;;;7.95;3.25;;;;;;;;;;5042179;28;20040;-66
2023/04/14 09:09:30;;;;;;;9.48;3.42;;;;;;;;;;5033184;28;20052;-59
2023/04/14 09:11:55;;;;;;;8.93;2.90;;;;;;;;;;5041718;28;20059;-63
2023/04/14 09:14:21;;;;;;;7.88;3.38;;;;;;;;;;5030406;28;20024;-66
2023/04/14 09:16:47;;;;;;;6.70;3.00;;;;;;;;;;5030373;28;20483;-66
2023/04/14 09:19:13;;;;;;;9.43;3.45;;;;;;;;;;5028335;28;20517;-64
2023/04/14 09:21:39;;;;;;;6.97;3.58;;;;;;;;;;5023096;28;20032;-60
2023/04/14 09:24:05;;;;;;;5.53;3.10;;;;;;;;;;5032003;28;20025;-64
2023/04/14 09:26:30;;;;;;;9.98;3.70;;;;;;;;;;5030874;28;20393;-64
2023/04/14 09:28:55;;;;;;;10.38;3.70;;;;;;;;;;5029469;28;20032;-66
2023/04/14 09:31:20;;;;;;;10.90;3.72;;;;;;;;;;5029841;28;20039;-65
2023/04/14 09:33:49;;;;;;;11.38;4.25;;;;;;;;;;5029642;28;20017;-64
2023/04/14 09:36:21;;;;;;;9.35;4.05;;;;;;;;;;5029731;28;20025;-66
2023/04/14 09:38:48;;;;;;;8.60;3.33;;;;;;;;;;5029880;28;20068;-65
2023/04/14 09:41:21;;;;;;;9.18;3.47;;;;;;;;;;5011425;28;20091;-63
2023/04/14 09:43:46;;;;;;;7.60;3.00;;;;;;;;;;5015843;28;20545;-66
2023/04/14 09:46:12;;;;;;;6.20;3.03;;;;;;;;;;5012357;28;20068;-66
2023/04/14 09:48:48;;;;;;;6.45;3.30;;;;;;;;;;5013001;28;20114;-63
2023/04/14 09:51:14;;;;;;;6.28;3.05;;;;;;;;;;5010332;28;21068;-60
2023/04/14 09:53:40;;;;;;;7.43;2.78;;;;;;;;;;5016526;28;20104;-64
2023/04/14 09:56:07;;;;;;;10.88;3.00;;;;;;;;;;5015506;28;20204;-67
2023/04/14 09:58:39;;;;;;;7.47;3.03;;;;;;;;;;5011712;28;20029;-63
2023/04/14 10:01:11;;;;;;;9.85;3.45;;;;;;;;;;5010883;28;20084;-65
2023/04/14 10:03:38;;;;;;;9.40;3.88;;;;;;;;;;5012103;28;20033;-65
2023/04/14 10:06:05;;;;;;;8.60;3.35;;;;;;;;;;5012145;28;20025;-65
2023/04/14 10:08:35;;;;;;;6.22;3.20;;;;;;;;;;5011324;28;20606;-65
2023/04/14 10:11:19;;;;;;;10.10;3.78;;;;;;;;;;5009426;28;20037;-66
2023/04/14 10:13:46;;;;;;;11.68;3.80;;;;;;;;;;5012922;28;20168;-64
2023/04/14 10:16:11;;;;;;;7.35;3.00;;;;;;;;;;5014505;28;20057;-64
2023/04/14 10:18:36;;;;;;;10.32;3.30;;;;;;;;;;5016947;28;20045;-64
2023/04/14 10:21:02;;;;;;;6.43;2.60;;;;;;;;;;5011707;28;20514;-67
2023/04/14 10:23:28;;;;;;;7.18;2.58;;;;;;;;;;5017559;28;20041;-65
2023/04/14 10:25:54;;;;;;;5.03;2.60;;;;;;;;;;5019752;28;20471;-63
2023/04/14 10:28:20;;;;;;;10.70;2.97;;;;;;;;;;5011072;28;20025;-64
2023/04/14 10:30:47;;;;;;;7.05;3.22;;;;;;;;;;5008147;28;20018;-64
2023/04/14 10:33:13;;;;;;;5.72;2.67;;;;;;;;;;5010585;28;20148;-67
2023/04/14 10:35:40;;;;;;;6.05;2.58;;;;;;;;;;5011093;28;20108;-64
2023/04/14 10:38:05;;;;;;;15.85;7.88;;;;;;;;;;5012630;28;20022;-64
2023/04/14 10:40:47;;;;;;;6.32;2.95;;;;;;;;;;5014897;28;20406;-65
2023/04/14 10:43:12;;;;;;;7.32;3.20;;;;;;;;;;5013638;28;20072;-64
2023/04/14 10:45:54;;;;;;;8.05;3.83;;;;;;;;;;5014456;28;20577;-66
2023/04/14 10:48:19;;;;;;;5.85;3.35;;;;;;;;;;5009567;28;20033;-65
2023/04/14 10:50:47;;;;;;;10.50;3.70;;;;;;;;;;5014052;28;20033;-66
2023/04/14 10:53:13;;;;;;;7.47;3.35;;;;;;;;;;5012063;28;20035;-60
2023/04/14 10:55:45;;;;;;;6.95;3.63;;;;;;;;;;5014534;28;20403;-64
2023/04/14 10:58:16;;;;;;;6.45;3.70;;;;;;;;;;5012540;28;20525;-65
2023/04/14 11:00:43;;;;;;;6.68;3.60;;;;;;;;;;5013218;28;20022;-66
2023/04/14 11:03:11;;;;;;;10.25;3.08;;;;;;;;;;5016382;28;20050;-67
2023/04/14 11:05:57;;;;;;;8.57;3.38;;;;;;;;;;5012832;28;20067;-68
2023/04/14 11:08:45;;;;;;;8.15;3.30;;;;;;;;;;5018029;28;20034;-64
2023/04/14 11:11:15;;;;;;;8.18;3.03;;;;;;;;;;5010574;28;20041;-61
2023/04/14 11:13:41;;;;;;;7.57;3.40;;;;;;;;;;5013497;28;20053;-67
2023/04/14 11:16:06;;;;;;;9.23;4.00;;;;;;;;;;5017384;28;20026;-66
2023/04/14 11:18:33;;;;;;;7.07;3.65;;;;;;;;;;5015875;28;20649;-67
2023/04/14 11:21:04;;;;;;;15.27;6.55;;;;;;;;;;5011942;28;20634;-64
2023/04/14 11:23:29;;;;;;;8.57;3.88;;;;;;;;;;5017935;28;20024;-65
2023/04/14 11:25:56;;;;;;;10.82;4.60;;;;;;;;;;5014582;28;20026;-66
2023/04/14 11:28:32;;;;;;;11.00;3.90;;;;;;;;;;5015839;28;20487;-62
2023/04/14 11:30:58;;;;;;;6.70;3.28;;;;;;;;;;5012770;28;20037;-67
2023/04/14 11:33:25;;;;;;;7.63;3.00;;;;;;;;;;4996194;28;20025;-65
2023/04/14 11:35:51;;;;;;;8.63;3.05;;;;;;;;;;5019671;28;20026;-60
2023/04/14 11:38:17;;;;;;;4.60;2.53;;;;;;;;;;5017552;28;20399;-62
2023/04/14 11:40:47;;;;;;;5.43;2.45;;;;;;;;;;5016612;28;20490;-64
2023/04/14 11:43:12;;;;;;;6.18;2.95;;;;;;;;;;5017430;28;20037;-65
2023/04/14 11:45:40;;;;;;;3.50;2.03;;;;;;;;;;5012063;28;20559;-68
2023/04/14 11:48:06;;;;;;;7.30;2.60;;;;;;;;;;5017108;28;20051;-67
2023/04/14 11:50:32;;;;;;;5.20;2.15;;;;;;;;;;5010698;28;20046;-62
2023/04/14 11:53:01;;;;;;;5.35;2.58;;;;;;;;;;5019625;28;20030;-68
2023/04/14 11:55:27;;;;;;;6.70;2.55;;;;;;;;;;5019248;28;20025;-62
2023/04/14 11:57:53;;;;;;;8.52;2.40;;;;;;;;;;5018339;28;20036;-65
2023/04/14 12:00:18;;;;;;;6.65;2.75;;;;;;;;;;5012937;28;20104;-67
2023/04/14 12:02:44;;;;;;;4.32;2.53;;;;;;;;;;5016561;28;20032;-65
2023/04/14 12:05:10;;;;;;;9.07;2.92;;;;;;;;;;5016281;28;20532;-66
2023/04/14 12:07:37;;;;;;;5.90;2.83;;;;;;;;;;5017900;28;20044;-69
2023/04/14 12:10:04;;;;;;;6.13;2.58;;;;;;;;;;5013723;28;20629;-65
2023/04/14 12:12:30;;;;;;;5.57;2.75;;;;;;;;;;5016375;28;20117;-65
2023/04/14 12:14:56;;;;;;;5.38;2.65;;;;;;;;;;5013827;28;20053;-65
2023/04/14 12:17:21;;;;;;;5.18;2.47;;;;;;;;;;5016971;28;20057;-64
2023/04/14 12:19:47;;;;;;;7.22;2.50;;;;;;;;;;5015629;28;20053;-67
2023/04/14 12:22:13;;;;;;;4.85;2.75;;;;;;;;;;5013824;28;20049;-65
2023/04/14 12:24:42;;;;;;;4.88;2.40;;;;;;;;;;5012338;28;20018;-64
2023/04/14 12:27:08;;;;;;;6.18;2.67;;;;;;;;;;5014413;28;20032;-67
2023/04/14 12:29:34;;;;;;;7.13;2.78;;;;;;;;;;5015021;28;20025;-67
2023/04/14 12:32:00;;;;;;;6.20;2.20;;;;;;;;;;5017636;28;20476;-68
2023/04/14 12:34:26;;;;;;;4.30;1.50;;;;;;;;;;5016896;28;20030;-65
2023/04/14 12:36:51;;;;;;;3.47;1.80;;;;;;;;;;5013815;28;20076;-64
2023/04/14 12:39:17;;;;;;;2.58;1.70;;;;;;;;;;5014057;28;20608;-66
2023/04/14 12:41:42;;;;;;;4.72;2.00;;;;;;;;;;5015563;28;20401;-65
2023/04/14 12:44:13;;;;;;;4.22;1.75;;;;;;;;;;5014736;28;20143;-65
2023/04/14 12:46:44;;;;;;;4.15;1.75;;;;;;;;;;5015174;28;20021;-66
2023/04/14 12:49:27;;;;;;;4.05;1.90;;;;;;;;;;5013170;28;20026;-66
2023/04/14 12:51:52;;;;;;;9.98;2.05;;;;;;;;;;5012713;28;20140;-66
2023/04/14 12:54:18;;;;;;;4.93;2.33;;;;;;;;;;5015210;28;20108;-64
2023/04/14 12:56:43;;;;;;;5.53;2.30;;;;;;;;;;5012806;28;20026;-63
2023/04/14 12:59:08;;;;;;;4.97;2.15;;;;;;;;;;5011789;28;20028;-66
2023/04/14 13:01:34;;;;;;;4.93;2.33;;;;;;;;;;5013669;28;20013;-64
2023/04/14 13:03:59;;;;;;;6.13;2.30;;;;;;;;;;5016455;28;20091;-66
2023/04/14 13:06:24;;;;;;;4.38;2.60;;;;;;;;;;5013431;28;20034;-63
2023/04/14 13:08:51;;;;;;;5.93;2.22;;;;;;;;;;5012818;28;20013;-66
2023/04/14 13:11:17;;;;;;;5.30;2.60;;;;;;;;;;5009701;28;20167;-62
2023/04/14 13:13:45;;;;;;;3.88;1.95;;;;;;;;;;5013138;28;20511;-66
2023/04/14 13:16:11;;;;;;;4.95;2.28;;;;;;;;;;5013520;28;20025;-65
2023/04/14 13:18:36;;;;;;;4.60;1.98;;;;;;;;;;5014043;28;20073;-63
2023/04/14 13:21:03;;;;;;;5.90;2.25;;;;;;;;;;5012359;28;20073;-69
2023/04/14 13:23:28;;;;;;;3.72;1.90;;;;;;;;;;5013873;28;20036;-69
2023/04/14 13:25:54;;;;;;;2.88;1.58;;;;;;;;;;5016841;28;20026;-65
2023/04/14 13:28:19;;;;;;;2.67;1.13;;;;;;;;;;5011296;28;20121;-65
2023/04/14 13:30:45;;;;;;;3.75;1.33;;;;;;;;;;5009797;28;20068;-67
2023/04/14 13:33:11;;;;;;;2.88;1.60;;;;;;;;;;5014866;28;20060;-62
2023/04/14 13:35:36;;;;;;;1.88;1.23;;;;;;;;;;5013392;28;20483;-62
2023/04/14 13:38:01;;;;;;;1.60;1.20;;;;;;;;;;5012830;28;20033;-63
2023/04/14 13:40:27;;;;;;;2.50;1.13;;;;;;;;;;5007409;28;20525;-64
2023/04/14 13:42:52;;;;;;;5.80;2.13;;;;;;;;;;5014303;28;20030;-65
2023/04/14 13:45:17;;;;;;;3.30;1.67;;;;;;;;;;5014848;28;20088;-66
2023/04/14 13:47:46;;;;;;;3.25;1.60;;;;;;;;;;5010793;28;20026;-64
2023/04/14 13:50:12;;;;;;;1.92;1.50;;;;;;;;;;5011671;28;20021;-65
2023/04/14 13:52:37;;;;;;;9.65;1.95;;;;;;;;;;5012111;28;20060;-67
2023/04/14 13:55:02;;;;;;;3.95;1.63;;;;;;;;;;5017746;28;20393;-68
2023/04/14 13:57:28;;;;;;;1.98;1.20;;;;;;;;;;5014241;28;20038;-67
2023/04/14 13:59:53;;;;;;;1.73;1.00;;;;;;;;;;5012928;28;20772;-63
2023/04/14 14:02:18;;;;;;;3.25;1.80;;;;;;;;;;5011337;28;20117;-66
2023/04/14 14:04:43;;;;;;;6.25;1.83;;;;;;;;;;5011526;28;20559;-64
2023/04/14 14:07:09;;;;;;;3.63;1.35;;;;;;;;;;5015867;28;20443;-65
2023/04/14 14:09:34;;;;;;;2.92;1.38;;;;;;;;;;5013488;28;20076;-66
2023/04/14 14:12:00;;;;;;;1.50;1.02;;;;;;;;;;5010082;28;20061;-68
2023/04/14 14:14:25;;;;;;;2.63;1.23;;;;;;;;;;5013514;28;20056;-65
2023/04/14 14:16:50;;;;;;;2.20;1.27;;;;;;;;;;5012340;28;20037;-69
2023/04/14 14:19:16;;;;;;;2.55;1.33;;;;;;;;;;5015492;28;20022;-65
2023/04/14 14:21:42;;;;;;;3.47;1.23;;;;;;;;;;5013135;28;20057;-64
2023/04/14 14:24:08;;;;;;;2.38;1.20;;;;;;;;;;5012676;28;20096;-66
2023/04/14 14:26:33;;;;;;;3.17;1.55;;;;;;;;;;5011268;28;20471;-67
2023/04/14 14:28:58;;;;;;;2.47;1.20;;;;;;;;;;5013207;28;20026;-67
2023/04/14 14:31:24;;;;;;;4.00;1.38;;;;;;;;;;5012127;28;20029;-67
2023/04/14 14:33:49;;;;;;;2.08;1.20;;;;;;;;;;5018216;28;20038;-65